Time;durP1;ratioP1;P1;durP2;ratioP2;P2;SDS_P1;SDS_P2;PMS_P1;PMS_P2;Temp;Humidity;BMP_temperature;BMP_pressure;BME280_temperature;BME280_humidity;BME280_pressure;Samples;Min_cycle;Max_cycle;Signal;HPM_P1;HPM_P2
2023/10/21 00:00:06;;;;;;;;;;;13.40;99.90;;;;;;5090868;28;19916;-81
2023/10/21 00:02:31;;;;;;;;;;;13.40;99.90;;;;;;5093359;28;19912;-81
2023/10/21 00:04:57;;;;;;;;;;;13.50;99.90;;;;;;5091553;28;19908;-81
2023/10/21 00:07:22;;;;;;;;;;;13.40;99.90;;;;;;5092932;28;20132;-81
2023/10/21 00:09:48;;;;;;;;;;;13.40;99.90;;;;;;5091630;28;19919;-85
2023/10/21 00:12:13;;;;;;;;;;;13.60;99.90;;;;;;5091186;28;20007;-81
2023/10/21 00:14:39;;;;;;;;;;;13.40;99.90;;;;;;5090694;28;19975;-82
2023/10/21 00:17:04;;;;;;;;;;;13.40;99.90;;;;;;5091736;28;19923;-82
2023/10/21 00:19:30;;;;;;;;;;;13.50;99.90;;;;;;5092938;28;20344;-80
2023/10/21 00:21:56;;;;;;;;;;;13.50;99.90;;;;;;5092432;28;19915;-81
2023/10/21 00:24:21;;;;;;;;;;;13.40;99.90;;;;;;5092717;28;19915;-87
2023/10/21 00:26:47;;;;;;;;;;;13.40;99.90;;;;;;5089386;28;19959;-81
2023/10/21 00:29:14;;;;;;;;;;;13.30;99.90;;;;;;5092402;28;20401;-82
2023/10/21 00:31:48;;;;;;;;;;;13.30;99.90;;;;;;5092602;28;19916;-81
2023/10/21 00:34:14;;;;;;;;;;;13.20;99.90;;;;;;5090796;28;20330;-83
2023/10/21 00:36:40;;;;;;;;;;;13.20;99.90;;;;;;5089360;28;20379;-81
2023/10/21 00:39:10;;;;;;;;;;;13.30;99.90;;;;;;5083120;28;19915;-80
2023/10/21 00:41:37;;;;;;;;;;;13.40;99.90;;;;;;5070697;28;19955;-80
2023/10/21 00:44:04;;;;;;;;;;;13.30;99.90;;;;;;5072886;28;19916;-82
2023/10/21 00:46:30;;;;;;;;;;;13.30;99.90;;;;;;5104901;28;19909;-81
2023/10/21 00:48:55;;;;;;;;;;;13.40;99.90;;;;;;5100462;28;19927;-81
2023/10/21 00:51:21;;;;;;;;;;;13.30;99.90;;;;;;5071621;28;20398;-81
2023/10/21 00:53:47;;;;;;;;;;;13.30;99.90;;;;;;5092143;28;19912;-81
2023/10/21 00:56:12;;;;;;;;;;;13.40;99.90;;;;;;5091437;28;19927;-81
2023/10/21 00:58:38;;;;;;;;;;;13.40;99.90;;;;;;5090621;28;19916;-81
2023/10/21 01:01:09;;;;;;;;;;;13.40;99.90;;;;;;5091165;28;19912;-81
2023/10/21 01:03:35;;;;;;;;;;;13.20;99.90;;;;;;5090747;28;19912;-81
2023/10/21 01:06:01;;;;;;;;;;;13.30;99.90;;;;;;5091318;28;19908;-81
2023/10/21 01:08:27;;;;;;;;;;;13.30;99.90;;;;;;5091256;28;19920;-82
2023/10/21 01:10:52;;;;;;;;;;;13.50;99.90;;;;;;5089875;28;19912;-81
2023/10/21 01:13:18;;;;;;;;;;;13.20;99.90;;;;;;5080773;28;20003;-81
2023/10/21 01:15:44;;;;;;;;;;;13.20;99.90;;;;;;5086370;28;19920;-82
2023/10/21 01:18:09;;;;;;;;;;;13.20;99.90;;;;;;5091710;28;20446;-82
2023/10/21 01:20:39;;;;;;;;;;;13.10;99.90;;;;;;5090535;28;20003;-81
2023/10/21 01:23:05;;;;;;;;;;;13.20;99.90;;;;;;5092074;28;20283;-81
2023/10/21 01:25:32;;;;;;;;;;;13.20;99.90;;;;;;5091744;28;20287;-81
2023/10/21 01:27:58;;;;;;;;;;;12.90;99.90;;;;;;5089174;28;19916;-81
2023/10/21 01:30:23;;;;;;;;;;;13.00;99.90;;;;;;5086308;28;20017;-80
2023/10/21 01:32:49;;;;;;;;;;;13.10;99.90;;;;;;5077100;28;19974;-81
2023/10/21 01:35:15;;;;;;;;;;;13.30;99.90;;;;;;5091214;28;20383;-81
2023/10/21 01:37:42;;;;;;;;;;;13.30;99.90;;;;;;5089955;28;19958;-81
2023/10/21 01:40:09;;;;;;;;;;;13.20;99.90;;;;;;5092087;28;19919;-82
2023/10/21 01:42:36;;;;;;;;;;;13.60;99.90;;;;;;5084559;28;19919;-83
2023/10/21 01:45:02;;;;;;;;;;;13.20;99.90;;;;;;5073021;28;19913;-83
2023/10/21 01:47:29;;;;;;;;;;;13.00;99.90;;;;;;5070497;28;19916;-82
2023/10/21 01:49:55;;;;;;;;;;;13.00;99.90;;;;;;5078165;28;19956;-83
2023/10/21 01:52:20;;;;;;;;;;;13.50;99.90;;;;;;5089592;28;19958;-82
2023/10/21 01:54:46;;;;;;;;;;;13.20;99.90;;;;;;5089568;28;19912;-86
2023/10/21 01:57:11;;;;;;;;;;;13.30;99.90;;;;;;5087894;28;20458;-85
2023/10/21 01:59:40;;;;;;;;;;;13.40;99.90;;;;;;5077231;28;19999;-83
2023/10/21 02:02:06;;;;;;;;;;;13.10;99.90;;;;;;5090174;28;20360;-88
2023/10/21 02:04:31;;;;;;;;;;;13.00;99.90;;;;;;5090192;28;19915;-88
2023/10/21 02:06:57;;;;;;;;;;;13.00;99.90;;;;;;5089617;28;19919;-84
2023/10/21 02:09:22;;;;;;;;;;;12.90;99.90;;;;;;5090947;28;19908;-81
2023/10/21 02:11:48;;;;;;;;;;;13.00;99.90;;;;;;5091036;28;19912;-81
2023/10/21 02:14:13;;;;;;;;;;;13.10;99.90;;;;;;5090720;28;20372;-86
2023/10/21 02:16:39;;;;;;;;;;;13.20;99.90;;;;;;5090787;28;20019;-81
2023/10/21 02:19:04;;;;;;;;;;;13.20;99.90;;;;;;5090049;28;20322;-81
2023/10/21 02:21:30;;;;;;;;;;;13.50;99.90;;;;;;5080587;28;20217;-87
2023/10/21 02:23:55;;;;;;;;;;;13.30;99.90;;;;;;5070238;28;19909;-88
2023/10/21 02:26:21;;;;;;;;;;;13.10;99.90;;;;;;5070271;28;19958;-89
2023/10/21 02:28:46;;;;;;;;;;;13.20;99.90;;;;;;5070281;28;19938;-81
2023/10/21 02:31:12;;;;;;;;;;;13.10;99.90;;;;;;5071770;28;19909;-80
2023/10/21 02:33:38;;;;;;;;;;;13.40;99.90;;;;;;5091236;28;19947;-81
2023/10/21 02:36:04;;;;;;;;;;;13.40;99.90;;;;;;5089958;28;19963;-88
2023/10/21 02:38:29;;;;;;;;;;;13.00;99.90;;;;;;5088630;28;19912;-88
2023/10/21 02:40:55;;;;;;;;;;;13.40;99.90;;;;;;5090018;28;19908;-82
2023/10/21 02:43:20;;;;;;;;;;;13.10;99.90;;;;;;5089462;28;19966;-87
2023/10/21 02:45:46;;;;;;;;;;;13.10;99.90;;;;;;5090267;28;19915;-87
2023/10/21 02:48:12;;;;;;;;;;;13.40;99.90;;;;;;5090581;28;19923;-81
2023/10/21 02:50:37;;;;;;;;;;;12.90;99.90;;;;;;5090677;28;19916;-81
2023/10/21 02:53:03;;;;;;;;;;;13.10;99.90;;;;;;5088702;28;19966;-86
2023/10/21 02:55:29;;;;;;;;;;;13.00;99.90;;;;;;5089965;28;19999;-82
2023/10/21 02:57:54;;;;;;;;;;;13.20;99.90;;;;;;5090118;28;20375;-80
2023/10/21 03:00:21;;;;;;;;;;;13.10;99.90;;;;;;5088511;28;19937;-81
2023/10/21 03:02:48;;;;;;;;;;;13.20;99.90;;;;;;5069793;28;20391;-89
2023/10/21 03:05:16;;;;;;;;;;;13.00;99.90;;;;;;5070015;28;19936;-83
2023/10/21 03:07:43;;;;;;;;;;;13.30;99.90;;;;;;5089079;28;19912;-81
2023/10/21 03:10:08;;;;;;;;;;;13.00;99.90;;;;;;5089442;28;19909;-87
2023/10/21 03:12:34;;;;;;;;;;;12.80;99.90;;;;;;5089946;28;19912;-85
2023/10/21 03:15:00;;;;;;;;;;;13.00;99.90;;;;;;5088796;28;20010;-87
2023/10/21 03:17:26;;;;;;;;;;;12.90;99.90;;;;;;5089945;28;19996;-89
2023/10/21 03:19:54;;;;;;;;;;;13.10;99.90;;;;;;5089954;28;19915;-87
2023/10/21 03:22:20;;;;;;;;;;;13.00;99.90;;;;;;5088699;28;19977;-80
2023/10/21 03:24:45;;;;;;;;;;;12.90;99.90;;;;;;5089773;28;20356;-81
2023/10/21 03:27:13;;;;;;;;;;;13.00;99.90;;;;;;5094823;28;19961;-81
2023/10/21 03:29:39;;;;;;;;;;;12.90;99.90;;;;;;5093587;28;19965;-82
2023/10/21 03:32:05;;;;;;;;;;;13.00;99.90;;;;;;5092526;28;19920;-85
2023/10/21 03:34:32;;;;;;;;;;;12.90;99.90;;;;;;5093126;28;19920;-81
2023/10/21 03:36:57;;;;;;;;;;;12.80;99.90;;;;;;5126770;27;20395;-83
2023/10/21 03:39:23;;;;;;;;;;;12.90;99.90;;;;;;5093346;28;20391;-82
2023/10/21 03:41:48;;;;;;;;;;;12.80;99.90;;;;;;5093408;28;19954;-89
2023/10/21 03:44:14;;;;;;;;;;;13.00;99.90;;;;;;5092877;28;19947;-88
2023/10/21 03:46:39;;;;;;;;;;;12.70;99.90;;;;;;5093706;28;19908;-87
2023/10/21 03:49:05;;;;;;;;;;;12.90;99.90;;;;;;5093407;28;20161;-87
2023/10/21 03:51:31;;;;;;;;;;;12.90;99.90;;;;;;5093179;28;19912;-81
2023/10/21 03:53:56;;;;;;;;;;;12.90;99.90;;;;;;5091595;28;20476;-81
2023/10/21 03:56:22;;;;;;;;;;;13.00;99.90;;;;;;5091991;28;19917;-81
2023/10/21 03:58:47;;;;;;;;;;;12.70;99.90;;;;;;5093385;28;20439;-81
2023/10/21 04:01:13;;;;;;;;;;;13.10;99.90;;;;;;5093784;28;19919;-88
2023/10/21 04:03:38;;;;;;;;;;;13.00;99.90;;;;;;5092263;28;20001;-81
2023/10/21 04:06:04;;;;;;;;;;;13.00;99.90;;;;;;5085895;28;19916;-87
2023/10/21 04:08:30;;;;;;;;;;;12.70;99.90;;;;;;5084782;28;19978;-86
2023/10/21 04:10:55;;;;;;;;;;;12.80;99.90;;;;;;5089832;28;20315;-89
2023/10/21 04:13:21;;;;;;;;;;;12.70;99.90;;;;;;5093389;28;20278;-83
2023/10/21 04:15:46;;;;;;;;;;;12.80;99.90;;;;;;5092742;28;20355;-83
2023/10/21 04:18:12;;;;;;;;;;;12.30;99.90;;;;;;5092595;28;20410;-82
2023/10/21 04:20:38;;;;;;;;;;;12.90;99.90;;;;;;5091848;28;20317;-88
2023/10/21 04:23:03;;;;;;;;;;;12.90;99.90;;;;;;5092109;28;19912;-89
2023/10/21 04:25:29;;;;;;;;;;;12.80;99.90;;;;;;5093148;28;19955;-91
2023/10/21 04:27:58;;;;;;;;;;;13.10;99.90;;;;;;5092007;28;19909;-82
2023/10/21 04:30:23;;;;;;;;;;;13.00;99.90;;;;;;5092573;28;19912;-87
2023/10/21 04:32:49;;;;;;;;;;;12.90;99.90;;;;;;5082566;28;19935;-84
2023/10/21 04:35:15;;;;;;;;;;;12.80;99.90;;;;;;5091933;28;19919;-81
2023/10/21 04:37:41;;;;;;;;;;;12.70;99.90;;;;;;5091113;28;19916;-82
2023/10/21 04:40:08;;;;;;;;;;;12.90;99.90;;;;;;5092581;28;19909;-88
2023/10/21 04:42:33;;;;;;;;;;;12.80;99.90;;;;;;5092523;28;19908;-82
2023/10/21 04:44:59;;;;;;;;;;;12.90;99.90;;;;;;5093132;28;20515;-84
2023/10/21 04:47:25;;;;;;;;;;;12.70;99.90;;;;;;5076092;28;19979;-90
2023/10/21 04:49:50;;;;;;;;;;;13.10;99.90;;;;;;5082525;28;19931;-83
2023/10/21 04:52:16;;;;;;;;;;;12.90;99.90;;;;;;5081777;28;20288;-82
2023/10/21 04:54:44;;;;;;;;;;;12.80;99.90;;;;;;5088249;28;19920;-81
2023/10/21 04:57:10;;;;;;;;;;;12.60;99.90;;;;;;5078571;28;20411;-89
2023/10/21 04:59:36;;;;;;;;;;;12.90;99.90;;;;;;5085745;28;19917;-88
2023/10/21 05:02:03;;;;;;;;;;;12.70;99.90;;;;;;5085771;28;20415;-82
2023/10/21 05:04:29;;;;;;;;;;;12.70;99.90;;;;;;5078415;28;19913;-83
2023/10/21 05:06:55;;;;;;;;;;;13.00;99.90;;;;;;5090837;28;19912;-87
2023/10/21 05:09:20;;;;;;;;;;;12.80;99.90;;;;;;5090137;28;19912;-83
2023/10/21 05:11:46;;;;;;;;;;;12.90;99.90;;;;;;5092296;28;20288;-83
2023/10/21 05:14:11;;;;;;;;;;;12.70;99.90;;;;;;5091939;28;19915;-87
2023/10/21 05:16:38;;;;;;;;;;;12.70;99.90;;;;;;5087549;28;20451;-79
2023/10/21 05:19:04;;;;;;;;;;;12.40;99.90;;;;;;5086461;28;19952;-83
2023/10/21 05:21:30;;;;;;;;;;;12.60;99.90;;;;;;5091172;28;19958;-86
2023/10/21 05:23:56;;;;;;;;;;;12.80;99.90;;;;;;5090310;28;19967;-82
2023/10/21 05:26:22;;;;;;;;;;;12.70;99.90;;;;;;5124308;27;20341;-83
2023/10/21 05:28:48;;;;;;;;;;;12.80;99.90;;;;;;5091043;28;19919;-81
2023/10/21 05:31:14;;;;;;;;;;;12.80;99.90;;;;;;5090537;28;20302;-86
2023/10/21 05:33:40;;;;;;;;;;;13.00;99.90;;;;;;5089538;28;20156;-82
2023/10/21 05:36:06;;;;;;;;;;;12.80;99.90;;;;;;5091708;28;19924;-88
2023/10/21 05:38:32;;;;;;;;;;;12.70;99.90;;;;;;5081996;28;19920;-84
2023/10/21 05:40:58;;;;;;;;;;;12.60;99.90;;;;;;5076350;28;19920;-83
2023/10/21 05:43:23;;;;;;;;;;;12.60;99.90;;;;;;5079286;28;20288;-82
2023/10/21 05:45:49;;;;;;;;;;;12.80;99.90;;;;;;5088317;28;20376;-82
2023/10/21 05:48:14;;;;;;;;;;;12.80;99.90;;;;;;5090027;28;20004;-84
2023/10/21 05:50:40;;;;;;;;;;;12.70;99.90;;;;;;5089027;28;20614;-86
2023/10/21 05:53:05;;;;;;;;;;;12.80;99.90;;;;;;5093594;28;19908;-82
2023/10/21 05:55:31;;;;;;;;;;;12.70;99.90;;;;;;5089754;28;19926;-87
2023/10/21 05:57:56;;;;;;;;;;;12.70;99.90;;;;;;5085592;28;19913;-82
2023/10/21 06:00:22;;;;;;;;;;;12.70;99.90;;;;;;5089630;28;19912;-82
2023/10/21 06:02:47;;;;;;;;;;;12.70;99.90;;;;;;5090123;28;19923;-82
2023/10/21 06:05:14;;;;;;;;;;;12.90;99.90;;;;;;5088343;28;19930;-82
2023/10/21 06:07:40;;;;;;;;;;;12.70;99.90;;;;;;5088382;28;19991;-82
2023/10/21 06:10:06;;;;;;;;;;;12.90;99.90;;;;;;5089349;28;19920;-82
2023/10/21 06:12:32;;;;;;;;;;;12.80;99.90;;;;;;5088213;28;19920;-86
2023/10/21 06:14:58;;;;;;;;;;;12.60;99.90;;;;;;5086061;28;19916;-86
2023/10/21 06:17:24;;;;;;;;;;;12.70;99.90;;;;;;5089452;28;20057;-82
2023/10/21 06:19:49;;;;;;;;;;;12.80;99.90;;;;;;5088851;28;19919;-82
2023/10/21 06:22:15;;;;;;;;;;;11.90;99.90;;;;;;5089155;28;19926;-81
2023/10/21 06:24:40;;;;;;;;;;;12.80;99.90;;;;;;5089507;28;19912;-82
2023/10/21 06:27:07;;;;;;;;;;;12.70;99.90;;;;;;5089201;28;19918;-82
2023/10/21 06:29:33;;;;;;;;;;;12.90;99.90;;;;;;5089810;28;19908;-88
2023/10/21 06:31:58;;;;;;;;;;;12.70;99.90;;;;;;5084361;28;19966;-89
2023/10/21 06:34:24;;;;;;;;;;;12.80;99.90;;;;;;5095911;28;19908;-83
2023/10/21 06:36:49;;;;;;;;;;;12.70;99.90;;;;;;5092306;28;20433;-88
2023/10/21 06:39:15;;;;;;;;;;;13.00;99.90;;;;;;5088037;28;19912;-90
2023/10/21 06:41:41;;;;;;;;;;;13.00;99.90;;;;;;5089884;28;19962;-88
2023/10/21 06:44:06;;;;;;;;;;;12.90;99.90;;;;;;5089374;28;19912;-87
2023/10/21 06:46:32;;;;;;;;;;;12.80;99.90;;;;;;5087420;28;19912;-84
2023/10/21 06:48:57;;;;;;;;;;;13.00;99.90;;;;;;5085172;28;19970;-85
2023/10/21 06:51:24;;;;;;;;;;;12.90;99.90;;;;;;5086600;28;20398;-82
2023/10/21 06:53:49;;;;;;;;;;;12.70;99.90;;;;;;5088065;28;19912;-82
2023/10/21 06:56:15;;;;;;;;;;;13.00;99.90;;;;;;5086021;28;19928;-88
2023/10/21 06:58:40;;;;;;;;;;;13.00;99.90;;;;;;5088447;28;20272;-89
2023/10/21 07:01:06;;;;;;;;;;;12.70;99.90;;;;;;5085808;28;19916;-82
2023/10/21 07:03:32;;;;;;;;;;;12.70;99.90;;;;;;5084450;28;19962;-89
2023/10/21 07:05:58;;;;;;;;;;;12.80;99.90;;;;;;5086988;28;20005;-85
2023/10/21 07:08:24;;;;;;;;;;;12.80;99.90;;;;;;5089524;28;19912;-84
2023/10/21 07:10:52;;;;;;;;;;;13.30;99.90;;;;;;5089184;28;20338;-83
2023/10/21 07:13:18;;;;;;;;;;;12.70;99.90;;;;;;5085996;28;19923;-85
2023/10/21 07:15:44;;;;;;;;;;;12.80;99.90;;;;;;5088235;28;19916;-90
2023/10/21 07:18:09;;;;;;;;;;;12.90;99.90;;;;;;5088302;28;19912;-88
2023/10/21 07:20:36;;;;;;;;;;;12.60;99.90;;;;;;5087958;28;19919;-89
2023/10/21 07:23:02;;;;;;;;;;;12.80;99.90;;;;;;5089240;28;19961;-89
2023/10/21 07:25:28;;;;;;;;;;;12.80;99.90;;;;;;5090304;28;19912;-85
2023/10/21 07:27:53;;;;;;;;;;;13.40;99.90;;;;;;5089475;28;20006;-89
2023/10/21 07:30:19;;;;;;;;;;;13.00;99.90;;;;;;5091257;28;20330;-83
2023/10/21 07:32:44;;;;;;;;;;;13.00;99.90;;;;;;5089830;28;19915;-90
2023/10/21 07:35:10;;;;;;;;;;;13.40;99.90;;;;;;5089956;28;20075;-86
2023/10/21 07:37:35;;;;;;;;;;;13.20;99.90;;;;;;5091305;28;19908;-88
2023/10/21 07:40:01;;;;;;;;;;;13.00;99.90;;;;;;5090461;28;19908;-88
2023/10/21 07:42:27;;;;;;;;;;;13.00;99.90;;;;;;5088200;28;19919;-86
2023/10/21 07:44:53;;;;;;;;;;;13.10;99.90;;;;;;5090726;28;19908;-90
2023/10/21 07:47:18;;;;;;;;;;;13.30;99.90;;;;;;5088581;28;19923;-91
2023/10/21 07:49:44;;;;;;;;;;;13.60;99.90;;;;;;5071484;28;19994;-89
2023/10/21 07:52:09;;;;;;;;;;;13.30;99.90;;;;;;5089543;28;20394;-89
2023/10/21 07:54:37;;;;;;;;;;;13.40;99.90;;;;;;5072273;28;20398;-90
2023/10/21 07:57:04;;;;;;;;;;;13.30;99.90;;;;;;5089942;28;19916;-90
2023/10/21 07:59:29;;;;;;;;;;;13.40;99.90;;;;;;5071989;28;19908;-85
2023/10/21 08:01:55;;;;;;;;;;;13.50;99.90;;;;;;5085454;28;19919;-90
2023/10/21 08:04:20;;;;;;;;;;;13.40;99.90;;;;;;5070541;28;20291;-92
2023/10/21 08:06:46;;;;;;;;;;;13.40;99.90;;;;;;5069442;28;19991;-88
2023/10/21 08:09:15;;;;;;;;;;;13.80;99.90;;;;;;5069241;28;20043;-87
2023/10/21 08:11:41;;;;;;;;;;;13.70;99.90;;;;;;5050969;28;19909;-90
2023/10/21 08:14:07;;;;;;;;;;;13.60;99.90;;;;;;5054732;28;20087;-83
2023/10/21 08:16:34;;;;;;;;;;;13.70;99.90;;;;;;5054157;28;20340;-88
2023/10/21 08:19:00;;;;;;;;;;;13.50;99.90;;;;;;5072549;28;19923;-87
2023/10/21 08:21:26;;;;;;;;;;;13.50;99.90;;;;;;5073368;28;20003;-86
2023/10/21 08:23:51;;;;;;;;;;;13.40;99.90;;;;;;5054875;28;19951;-88
2023/10/21 08:26:17;;;;;;;;;;;13.70;99.90;;;;;;5054775;28;20328;-85
2023/10/21 08:28:43;;;;;;;;;;;13.60;99.90;;;;;;5088191;28;19919;-84
2023/10/21 08:31:08;;;;;;;;;;;13.60;99.90;;;;;;5088894;28;20003;-86
2023/10/21 08:33:34;;;;;;;;;;;13.60;99.90;;;;;;5072444;28;19954;-83
2023/10/21 08:35:59;;;;;;;;;;;13.70;99.90;;;;;;5072442;28;20315;-83
2023/10/21 08:38:25;;;;;;;;;;;13.60;99.90;;;;;;5055480;28;20380;-87
2023/10/21 08:40:50;;;;;;;;;;;13.60;99.90;;;;;;5072078;28;19908;-83
2023/10/21 08:43:17;;;;;;;;;;;13.60;99.90;;;;;;5048088;28;19913;-83
2023/10/21 08:45:43;;;;;;;;;;;13.50;99.90;;;;;;5054485;28;19909;-85
2023/10/21 08:48:10;;;;;;;;;;;13.60;99.90;;;;;;5071442;28;19920;-82
2023/10/21 08:50:35;;;;;;;;;;;13.70;99.90;;;;;;5125266;27;19908;-90
2023/10/21 08:53:04;;;;;;;;;;;13.70;99.90;;;;;;5092352;28;19953;-85
2023/10/21 08:55:31;;;;;;;;;;;13.60;99.90;;;;;;5090971;28;19923;-82
2023/10/21 08:57:57;;;;;;;;;;;13.70;99.90;;;;;;5088426;28;19916;-89
2023/10/21 09:00:23;;;;;;;;;;;13.80;99.90;;;;;;5104951;28;20007;-89
2023/10/21 09:02:49;;;;;;;;;;;13.80;99.90;;;;;;5072001;28;20399;-83
2023/10/21 09:05:14;;;;;;;;;;;13.90;99.90;;;;;;5087846;28;19908;-84
2023/10/21 09:07:44;;;;;;;;;;;13.70;99.90;;;;;;5104860;28;20424;-85
2023/10/21 09:10:11;;;;;;;;;;;13.70;99.90;;;;;;5081965;28;19919;-84
2023/10/21 09:12:37;;;;;;;;;;;13.80;99.90;;;;;;5091877;28;19985;-82
2023/10/21 09:15:05;;;;;;;;;;;14.00;99.90;;;;;;5091384;28;20392;-89
2023/10/21 09:17:35;;;;;;;;;;;13.70;99.90;;;;;;5090906;28;19908;-86
2023/10/21 09:20:11;;;;;;;;;;;13.70;99.90;;;;;;5091443;28;19918;-83
2023/10/21 09:22:37;;;;;;;;;;;14.00;99.90;;;;;;5088515;28;19915;-83
2023/10/21 09:25:15;;;;;;;;;;;13.90;99.90;;;;;;5091797;28;19999;-89
2023/10/21 09:27:44;;;;;;;;;;;13.80;99.90;;;;;;5091516;28;20384;-86
2023/10/21 09:30:16;;;;;;;;;;;13.80;99.90;;;;;;5091083;28;20446;-83
2023/10/21 09:32:43;;;;;;;;;;;13.80;99.90;;;;;;5091152;28;19919;-91
2023/10/21 09:35:14;;;;;;;;;;;14.20;99.90;;;;;;5091881;28;19912;-87
2023/10/21 09:37:40;;;;;;;;;;;13.80;99.90;;;;;;5091288;28;20300;-88
2023/10/21 09:40:06;;;;;;;;;;;14.00;99.90;;;;;;5091919;28;20376;-88
2023/10/21 09:42:41;;;;;;;;;;;14.30;99.90;;;;;;5090911;28;20367;-85
2023/10/21 09:45:10;;;;;;;;;;;13.90;99.90;;;;;;5091900;28;20418;-90
2023/10/21 09:47:40;;;;;;;;;;;14.00;99.90;;;;;;5091070;28;19920;-90
2023/10/21 09:50:09;;;;;;;;;;;14.00;99.90;;;;;;5090461;28;19908;-88
2023/10/21 09:52:56;;;;;;;;;;;14.10;99.90;;;;;;5089473;28;19966;-88
2023/10/21 09:55:24;;;;;;;;;;;14.10;99.90;;;;;;5089279;28;19912;-85
2023/10/21 09:57:53;;;;;;;;;;;14.20;99.90;;;;;;5091369;28;19912;-83
2023/10/21 10:00:19;;;;;;;;;;;14.20;99.90;;;;;;5090279;28;19912;-84
2023/10/21 10:02:48;;;;;;;;;;;14.20;99.90;;;;;;5091596;28;19908;-87
2023/10/21 10:05:14;;;;;;;;;;;14.10;99.90;;;;;;5091002;28;20003;-84
2023/10/21 10:07:40;;;;;;;;;;;14.10;99.90;;;;;;5089987;28;20502;-83
2023/10/21 10:10:07;;;;;;;;;;;14.10;99.90;;;;;;5090932;28;20006;-89
2023/10/21 10:12:37;;;;;;;;;;;14.10;99.90;;;;;;5091685;28;20433;-83
2023/10/21 10:15:21;;;;;;;;;;;14.10;99.90;;;;;;5091259;28;19908;-87
2023/10/21 10:17:50;;;;;;;;;;;14.20;99.90;;;;;;5089552;28;19912;-86
2023/10/21 10:20:18;;;;;;;;;;;14.20;99.90;;;;;;5089088;28;19915;-86
2023/10/21 10:22:47;;;;;;;;;;;14.10;99.90;;;;;;5074269;28;19912;-89
2023/10/21 10:25:15;;;;;;;;;;;14.00;99.90;;;;;;5090298;28;20375;-87
2023/10/21 10:27:42;;;;;;;;;;;14.00;99.90;;;;;;5089711;28;19912;-88
2023/10/21 10:30:12;;;;;;;;;;;14.10;99.90;;;;;;5089777;28;20383;-85
2023/10/21 10:32:43;;;;;;;;;;;14.10;99.90;;;;;;5089717;28;19973;-83
2023/10/21 10:35:09;;;;;;;;;;;14.20;99.90;;;;;;5089153;28;20493;-86
2023/10/21 10:37:35;;;;;;;;;;;14.20;99.90;;;;;;5089326;28;19979;-83
2023/10/21 10:40:15;;;;;;;;;;;14.00;99.90;;;;;;5090517;28;19977;-87
2023/10/21 10:42:40;;;;;;;;;;;14.00;99.90;;;;;;5092458;28;20284;-84
2023/10/21 10:45:06;;;;;;;;;;;14.10;99.90;;;;;;5097934;28;20313;-83
2023/10/21 10:47:32;;;;;;;;;;;14.10;99.90;;;;;;5100566;28;19959;-84
2023/10/21 10:49:58;;;;;;;;;;;14.00;99.90;;;;;;5089845;28;20383;-87
2023/10/21 10:52:27;;;;;;;;;;;14.00;99.90;;;;;;5090217;28;20299;-83
2023/10/21 10:54:53;;;;;;;;;;;14.00;99.90;;;;;;5090329;28;20279;-84
2023/10/21 10:57:20;;;;;;;;;;;14.00;99.90;;;;;;5088867;28;20467;-84
2023/10/21 10:59:46;;;;;;;;;;;14.10;99.90;;;;;;5090180;28;19908;-86
2023/10/21 11:02:14;;;;;;;;;;;14.10;99.90;;;;;;5090165;28;19908;-87
2023/10/21 11:04:44;;;;;;;;;;;14.10;99.90;;;;;;5090005;28;19908;-84
2023/10/21 11:07:12;;;;;;;;;;;14.20;99.90;;;;;;5090018;28;19915;-87
2023/10/21 11:09:38;;;;;;;;;;;14.10;99.90;;;;;;5089749;28;19908;-88
2023/10/21 11:12:04;;;;;;;;;;;14.20;99.90;;;;;;5090789;28;19961;-89
2023/10/21 11:14:29;;;;;;;;;;;14.10;99.90;;;;;;5089722;28;19912;-91
2023/10/21 11:16:55;;;;;;;;;;;14.10;99.90;;;;;;5087595;28;19920;-88
2023/10/21 11:19:22;;;;;;;;;;;14.10;99.90;;;;;;5088546;28;19908;-88
2023/10/21 11:21:51;;;;;;;;;;;14.20;99.90;;;;;;5089720;28;19953;-83
2023/10/21 11:24:19;;;;;;;;;;;14.10;99.90;;;;;;5088567;28;19965;-85
2023/10/21 11:26:45;;;;;;;;;;;14.10;99.90;;;;;;5087379;28;19919;-82
2023/10/21 11:29:10;;;;;;;;;;;14.10;99.90;;;;;;5090158;28;19908;-84
2023/10/21 11:31:37;;;;;;;;;;;14.00;99.90;;;;;;5095562;28;19999;-83
2023/10/21 11:34:06;;;;;;;;;;;14.10;99.90;;;;;;5089293;28;20371;-83
2023/10/21 11:36:32;;;;;;;;;;;14.10;99.90;;;;;;5086976;28;20307;-83
2023/10/21 11:38:57;;;;;;;;;;;14.20;99.90;;;;;;5087351;28;19922;-83
2023/10/21 11:41:23;;;;;;;;;;;14.20;99.90;;;;;;5089015;28;19912;-84
2023/10/21 11:43:51;;;;;;;;;;;14.20;99.90;;;;;;5088801;28;20341;-84
2023/10/21 11:46:17;;;;;;;;;;;14.20;99.90;;;;;;5089257;28;19912;-83
2023/10/21 11:48:43;;;;;;;;;;;14.30;99.90;;;;;;5092477;28;19939;-84
2023/10/21 11:51:08;;;;;;;;;;;14.30;99.90;;;;;;5091637;28;20032;-85
2023/10/21 11:53:34;;;;;;;;;;;14.30;99.90;;;;;;5093427;28;20380;-88
2023/10/21 11:56:50;;;;;;;;;;;14.30;99.90;;;;;;5091505;28;19920;-84
2023/10/21 12:02:26;;;;;;;;;;;14.40;99.90;;;;;;5092630;28;19958;-87
2023/10/21 12:05:17;;;;;;;;;;;14.40;99.90;;;;;;5091755;28;19943;-82
2023/10/21 12:07:31;;;;;;;;;;;14.40;99.90;;;;;;5090109;28;20045;-83
2023/10/21 12:15:46;;;;;;;;;;;14.40;99.90;;;;;;5091492;28;19916;-83
2023/10/21 12:19:06;;;;;;;;;;;14.50;99.90;;;;;;5087640;28;20299;-82
2023/10/21 12:39:38;;;;;;;;;;;14.40;99.90;;;;;;5091697;28;20280;-86
2023/10/21 12:42:21;;;;;;;;;;;14.40;99.90;;;;;;5089842;28;20376;-84
2023/10/21 12:44:52;;;;;;;;;;;14.40;99.90;;;;;;5089660;28;19918;-83
2023/10/21 12:47:18;;;;;;;;;;;14.40;99.90;;;;;;5089879;28;20295;-88
2023/10/21 12:49:45;;;;;;;;;;;14.30;99.90;;;;;;5089454;28;20424;-85
2023/10/21 12:52:11;;;;;;;;;;;14.30;99.90;;;;;;5088229;28;19912;-85
2023/10/21 12:54:37;;;;;;;;;;;14.30;99.90;;;;;;5091413;28;19990;-85
2023/10/21 12:57:03;;;;;;;;;;;14.30;99.90;;;;;;5089056;28;19928;-87
2023/10/21 12:59:28;;;;;;;;;;;14.30;99.90;;;;;;5087597;28;19923;-84
2023/10/21 13:01:54;;;;;;;;;;;14.30;99.90;;;;;;5090477;28;19919;-85
2023/10/21 13:04:20;;;;;;;;;;;14.20;99.90;;;;;;5091286;28;19992;-84
2023/10/21 13:06:46;;;;;;;;;;;14.30;99.90;;;;;;5087337;28;20303;-84
2023/10/21 13:09:21;;;;;;;;;;;14.20;99.90;;;;;;5090824;28;19919;-85
2023/10/21 13:11:50;;;;;;;;;;;14.20;99.90;;;;;;5090323;28;19912;-85
2023/10/21 13:14:16;;;;;;;;;;;14.10;99.90;;;;;;5090864;28;19919;-85
2023/10/21 13:16:42;;;;;;;;;;;14.10;99.90;;;;;;5080971;28;20540;-84
2023/10/21 13:19:09;;;;;;;;;;;14.20;99.90;;;;;;5078908;28;19947;-85
2023/10/21 13:21:35;;;;;;;;;;;14.20;99.90;;;;;;5074956;28;19995;-86
2023/10/21 13:24:04;;;;;;;;;;;14.20;99.90;;;;;;5106515;27;20129;-83
2023/10/21 13:26:30;;;;;;;;;;;14.10;99.90;;;;;;5069264;28;19920;-87
2023/10/21 13:28:56;;;;;;;;;;;14.10;99.90;;;;;;5077419;28;19931;-84
2023/10/21 13:31:22;;;;;;;;;;;14.20;99.90;;;;;;5073056;28;20403;-86
2023/10/21 13:33:47;;;;;;;;;;;14.20;99.90;;;;;;5071793;28;19940;-83
2023/10/21 13:36:13;;;;;;;;;;;14.10;99.90;;;;;;5082030;28;20295;-84
2023/10/21 13:38:38;;;;;;;;;;;14.00;99.90;;;;;;5088358;28;19916;-85
2023/10/21 13:41:05;;;;;;;;;;;14.10;99.90;;;;;;5089168;28;20387;-85
2023/10/21 13:43:30;;;;;;;;;;;14.20;99.90;;;;;;5090151;28;19920;-84
2023/10/21 13:45:56;;;;;;;;;;;14.20;99.90;;;;;;5093466;28;19916;-86
2023/10/21 13:48:21;;;;;;;;;;;14.20;99.90;;;;;;5085394;28;19924;-86
2023/10/21 13:50:50;;;;;;;;;;;14.20;99.90;;;;;;5080954;28;19991;-82
2023/10/21 13:53:17;;;;;;;;;;;14.30;99.90;;;;;;5079002;28;19944;-85
2023/10/21 13:55:45;;;;;;;;;;;14.30;99.90;;;;;;5077676;28;19916;-83
2023/10/21 13:58:11;;;;;;;;;;;14.30;99.90;;;;;;5079251;28;20332;-83
2023/10/21 14:00:36;;;;;;;;;;;14.30;99.90;;;;;;5061541;28;19992;-82
2023/10/21 14:03:08;;;;;;;;;;;14.30;99.90;;;;;;5068066;28;20307;-86
2023/10/21 14:05:41;;;;;;;;;;;14.30;99.90;;;;;;5080610;28;19912;-84
2023/10/21 14:08:08;;;;;;;;;;;14.40;99.90;;;;;;5061449;28;20004;-83
2023/10/21 14:10:40;;;;;;;;;;;14.40;99.90;;;;;;5061053;28;20295;-85
2023/10/21 14:13:07;;;;;;;;;;;14.40;99.90;;;;;;5076863;28;19939;-85
2023/10/21 14:15:33;;;;;;;;;;;14.40;99.90;;;;;;5063115;28;20255;-82
2023/10/21 14:17:59;;;;;;;;;;;14.30;99.90;;;;;;5060772;28;19978;-83
2023/10/21 14:20:28;;;;;;;;;;;14.40;99.90;;;;;;5078686;28;20361;-82
2023/10/21 14:22:54;;;;;;;;;;;14.40;99.90;;;;;;5063600;28;19918;-83
2023/10/21 14:25:20;;;;;;;;;;;14.40;99.90;;;;;;5059692;28;19909;-83
2023/10/21 14:27:46;;;;;;;;;;;14.40;99.90;;;;;;5057265;28;19912;-83
2023/10/21 14:30:12;;;;;;;;;;;14.50;99.90;;;;;;5066630;28;19943;-84
2023/10/21 14:32:38;;;;;;;;;;;14.50;99.90;;;;;;5063701;28;19909;-83
2023/10/21 14:35:07;;;;;;;;;;;14.40;99.90;;;;;;5060779;28;19912;-83
2023/10/21 14:37:38;;;;;;;;;;;14.50;99.90;;;;;;5062111;28;20135;-83
2023/10/21 14:40:06;;;;;;;;;;;14.40;99.90;;;;;;5063314;28;19971;-83